sensor_id;sensor_type;location;lat;lon;timestamp;temperature;humidity
52965;DHT22;42923;53.220;6.528;2023-07-24T00:01:39;16.90;99.90
52965;DHT22;42923;53.220;6.528;2023-07-24T00:04:05;16.90;99.90
52965;DHT22;42923;53.220;6.528;2023-07-24T00:06:30;16.80;99.90
52965;DHT22;42923;53.220;6.528;2023-07-24T00:08:56;16.90;99.90
52965;DHT22;42923;53.220;6.528;2023-07-24T00:11:22;16.80;99.90
52965;DHT22;42923;53.220;6.528;2023-07-24T00:13:48;16.80;99.90
52965;DHT22;42923;53.220;6.528;2023-07-24T00:16:13;16.80;99.90
52965;DHT22;42923;53.220;6.528;2023-07-24T00:18:39;16.70;99.90
52965;DHT22;42923;53.220;6.528;2023-07-24T00:21:06;16.80;99.90
52965;DHT22;42923;53.220;6.528;2023-07-24T00:23:32;16.80;99.90
52965;DHT22;42923;53.220;6.528;2023-07-24T00:25:57;16.70;99.90
52965;DHT22;42923;53.220;6.528;2023-07-24T00:28:23;16.80;99.90
52965;DHT22;42923;53.220;6.528;2023-07-24T00:30:49;16.70;99.90
52965;DHT22;42923;53.220;6.528;2023-07-24T00:33:17;16.70;99.90
52965;DHT22;42923;53.220;6.528;2023-07-24T00:35:43;16.70;99.90
52965;DHT22;42923;53.220;6.528;2023-07-24T00:38:09;16.60;99.90
52965;DHT22;42923;53.220;6.528;2023-07-24T00:40:35;16.60;99.90
52965;DHT22;42923;53.220;6.528;2023-07-24T00:43:01;16.60;99.90
52965;DHT22;42923;53.220;6.528;2023-07-24T00:45:28;16.50;99.90
52965;DHT22;42923;53.220;6.528;2023-07-24T00:47:54;16.50;99.90
52965;DHT22;42923;53.220;6.528;2023-07-24T00:50:21;16.50;99.90
52965;DHT22;42923;53.220;6.528;2023-07-24T00:52:47;16.40;99.90
52965;DHT22;42923;53.220;6.528;2023-07-24T00:55:13;16.40;99.90
52965;DHT22;42923;53.220;6.528;2023-07-24T00:57:42;16.40;99.90
52965;DHT22;42923;53.220;6.528;2023-07-24T01:00:08;16.40;99.90
52965;DHT22;42923;53.220;6.528;2023-07-24T01:02:34;16.40;99.90
52965;DHT22;42923;53.220;6.528;2023-07-24T01:05:01;16.30;99.90
52965;DHT22;42923;53.220;6.528;2023-07-24T01:07:27;16.30;99.90
52965;DHT22;42923;53.220;6.528;2023-07-24T01:09:52;16.30;99.90
52965;DHT22;42923;53.220;6.528;2023-07-24T01:14:52;16.20;99.90
52965;DHT22;42923;53.220;6.528;2023-07-24T01:17:24;16.20;99.90
52965;DHT22;42923;53.220;6.528;2023-07-24T01:19:56;16.20;99.90
52965;DHT22;42923;53.220;6.528;2023-07-24T01:25:26;16.10;99.90
52965;DHT22;42923;53.220;6.528;2023-07-24T01:27:52;16.10;99.90
52965;DHT22;42923;53.220;6.528;2023-07-24T01:30:19;16.00;99.90
52965;DHT22;42923;53.220;6.528;2023-07-24T01:32:46;16.00;99.90
52965;DHT22;42923;53.220;6.528;2023-07-24T01:35:12;16.00;99.90
52965;DHT22;42923;53.220;6.528;2023-07-24T01:37:38;16.00;99.90
52965;DHT22;42923;53.220;6.528;2023-07-24T01:40:10;15.90;99.90
52965;DHT22;42923;53.220;6.528;2023-07-24T01:42:36;15.90;99.90
52965;DHT22;42923;53.220;6.528;2023-07-24T01:45:03;15.90;99.90
52965;DHT22;42923;53.220;6.528;2023-07-24T01:47:29;15.80;99.90
52965;DHT22;42923;53.220;6.528;2023-07-24T01:49:58;15.80;99.90
52965;DHT22;42923;53.220;6.528;2023-07-24T01:52:25;15.80;99.90
52965;DHT22;42923;53.220;6.528;2023-07-24T01:54:51;15.80;99.90
52965;DHT22;42923;53.220;6.528;2023-07-24T01:57:17;15.80;99.90
52965;DHT22;42923;53.220;6.528;2023-07-24T01:59:43;15.80;99.90
52965;DHT22;42923;53.220;6.528;2023-07-24T02:02:10;15.80;99.90
52965;DHT22;42923;53.220;6.528;2023-07-24T02:04:36;15.80;99.90
52965;DHT22;42923;53.220;6.528;2023-07-24T02:07:03;15.90;99.90
52965;DHT22;42923;53.220;6.528;2023-07-24T02:09:29;15.90;99.90
52965;DHT22;42923;53.220;6.528;2023-07-24T02:11:54;16.00;99.90
52965;DHT22;42923;53.220;6.528;2023-07-24T02:14:21;16.00;99.90
52965;DHT22;42923;53.220;6.528;2023-07-24T02:16:46;16.10;99.90
52965;DHT22;42923;53.220;6.528;2023-07-24T02:19:12;16.10;99.90
52965;DHT22;42923;53.220;6.528;2023-07-24T02:21:38;16.20;99.90
52965;DHT22;42923;53.220;6.528;2023-07-24T02:24:04;16.20;99.90
52965;DHT22;42923;53.220;6.528;2023-07-24T02:26:30;16.20;99.90
52965;DHT22;42923;53.220;6.528;2023-07-24T02:28:56;16.20;99.90
52965;DHT22;42923;53.220;6.528;2023-07-24T02:31:22;16.10;99.90
52965;DHT22;42923;53.220;6.528;2023-07-24T02:33:48;16.20;99.90
52965;DHT22;42923;53.220;6.528;2023-07-24T02:36:14;16.10;99.90
52965;DHT22;42923;53.220;6.528;2023-07-24T02:38:40;16.10;99.90
52965;DHT22;42923;53.220;6.528;2023-07-24T02:41:06;16.00;99.90
52965;DHT22;42923;53.220;6.528;2023-07-24T02:43:32;16.00;99.90
52965;DHT22;42923;53.220;6.528;2023-07-24T02:46:01;16.00;99.90
52965;DHT22;42923;53.220;6.528;2023-07-24T02:48:27;16.00;99.90
52965;DHT22;42923;53.220;6.528;2023-07-24T02:50:53;16.00;99.90
52965;DHT22;42923;53.220;6.528;2023-07-24T02:53:20;16.00;99.90
52965;DHT22;42923;53.220;6.528;2023-07-24T02:55:45;16.10;99.90
52965;DHT22;42923;53.220;6.528;2023-07-24T02:58:12;16.10;99.90
52965;DHT22;42923;53.220;6.528;2023-07-24T03:00:39;16.10;99.90
52965;DHT22;42923;53.220;6.528;2023-07-24T03:03:04;16.20;99.90
52965;DHT22;42923;53.220;6.528;2023-07-24T03:05:30;16.20;99.90
52965;DHT22;42923;53.220;6.528;2023-07-24T03:07:56;16.30;99.90
52965;DHT22;42923;53.220;6.528;2023-07-24T03:10:23;16.20;99.90
52965;DHT22;42923;53.220;6.528;2023-07-24T03:12:49;16.30;99.90
52965;DHT22;42923;53.220;6.528;2023-07-24T03:15:14;16.40;99.90
52965;DHT22;42923;53.220;6.528;2023-07-24T03:17:40;16.40;99.90
52965;DHT22;42923;53.220;6.528;2023-07-24T03:20:24;16.40;99.90
52965;DHT22;42923;53.220;6.528;2023-07-24T03:22:50;16.50;99.90
52965;DHT22;42923;53.220;6.528;2023-07-24T03:25:16;16.40;99.90
52965;DHT22;42923;53.220;6.528;2023-07-24T03:27:42;16.50;99.90
52965;DHT22;42923;53.220;6.528;2023-07-24T03:30:07;16.50;99.90
52965;DHT22;42923;53.220;6.528;2023-07-24T03:32:33;16.60;99.90
52965;DHT22;42923;53.220;6.528;2023-07-24T03:34:59;16.60;99.90
52965;DHT22;42923;53.220;6.528;2023-07-24T03:37:25;16.60;99.90
52965;DHT22;42923;53.220;6.528;2023-07-24T03:39:51;16.60;99.90
52965;DHT22;42923;53.220;6.528;2023-07-24T03:42:28;16.70;99.90
52965;DHT22;42923;53.220;6.528;2023-07-24T03:44:55;16.70;99.90
52965;DHT22;42923;53.220;6.528;2023-07-24T03:47:21;16.70;99.90
52965;DHT22;42923;53.220;6.528;2023-07-24T03:49:47;16.70;99.90
52965;DHT22;42923;53.220;6.528;2023-07-24T03:52:12;16.70;99.90
52965;DHT22;42923;53.220;6.528;2023-07-24T03:54:38;16.70;99.90
52965;DHT22;42923;53.220;6.528;2023-07-24T03:57:04;16.80;99.90
52965;DHT22;42923;53.220;6.528;2023-07-24T03:59:30;16.80;99.90
52965;DHT22;42923;53.220;6.528;2023-07-24T04:01:56;16.80;99.90
52965;DHT22;42923;53.220;6.528;2023-07-24T04:04:22;16.80;99.90
52965;DHT22;42923;53.220;6.528;2023-07-24T04:06:48;16.90;99.90
52965;DHT22;42923;53.220;6.528;2023-07-24T04:09:14;16.90;99.90
52965;DHT22;42923;53.220;6.528;2023-07-24T04:11:45;16.90;99.90
52965;DHT22;42923;53.220;6.528;2023-07-24T04:14:11;16.90;99.90
52965;DHT22;42923;53.220;6.528;2023-07-24T04:16:36;16.90;99.90
52965;DHT22;42923;53.220;6.528;2023-07-24T04:19:03;16.90;99.90
52965;DHT22;42923;53.220;6.528;2023-07-24T04:21:28;16.90;99.90
52965;DHT22;42923;53.220;6.528;2023-07-24T04:23:54;16.90;99.90
52965;DHT22;42923;53.220;6.528;2023-07-24T04:26:20;17.00;99.90
52965;DHT22;42923;53.220;6.528;2023-07-24T04:28:46;16.90;99.90
52965;DHT22;42923;53.220;6.528;2023-07-24T04:31:12;16.90;99.90
52965;DHT22;42923;53.220;6.528;2023-07-24T04:33:38;16.90;99.90
52965;DHT22;42923;53.220;6.528;2023-07-24T04:36:04;16.90;99.90
52965;DHT22;42923;53.220;6.528;2023-07-24T04:38:30;16.90;99.90
52965;DHT22;42923;53.220;6.528;2023-07-24T04:40:56;16.90;99.90
52965;DHT22;42923;53.220;6.528;2023-07-24T04:43:21;16.90;99.90
52965;DHT22;42923;53.220;6.528;2023-07-24T04:45:47;16.90;99.90
52965;DHT22;42923;53.220;6.528;2023-07-24T04:48:13;16.90;99.90
52965;DHT22;42923;53.220;6.528;2023-07-24T04:50:38;16.90;99.90
52965;DHT22;42923;53.220;6.528;2023-07-24T04:53:04;16.90;99.90
52965;DHT22;42923;53.220;6.528;2023-07-24T04:55:30;16.90;99.90
52965;DHT22;42923;53.220;6.528;2023-07-24T04:57:56;17.00;99.90
52965;DHT22;42923;53.220;6.528;2023-07-24T05:00:21;17.00;99.90
52965;DHT22;42923;53.220;6.528;2023-07-24T05:02:47;17.00;99.90
52965;DHT22;42923;53.220;6.528;2023-07-24T05:05:13;17.10;99.90
52965;DHT22;42923;53.220;6.528;2023-07-24T05:07:38;17.00;99.90
52965;DHT22;42923;53.220;6.528;2023-07-24T05:10:05;17.00;99.90
52965;DHT22;42923;53.220;6.528;2023-07-24T05:12:30;17.00;99.90
52965;DHT22;42923;53.220;6.528;2023-07-24T05:14:56;17.10;99.90
52965;DHT22;42923;53.220;6.528;2023-07-24T05:17:22;17.10;99.90
52965;DHT22;42923;53.220;6.528;2023-07-24T05:19:48;17.10;99.90
52965;DHT22;42923;53.220;6.528;2023-07-24T05:22:13;17.20;99.90
52965;DHT22;42923;53.220;6.528;2023-07-24T05:24:39;17.20;99.90
52965;DHT22;42923;53.220;6.528;2023-07-24T05:27:05;17.20;99.90
52965;DHT22;42923;53.220;6.528;2023-07-24T05:29:31;17.30;99.90
52965;DHT22;42923;53.220;6.528;2023-07-24T05:31:57;17.30;99.90
52965;DHT22;42923;53.220;6.528;2023-07-24T05:34:25;17.30;99.90
52965;DHT22;42923;53.220;6.528;2023-07-24T05:36:51;17.40;99.90
52965;DHT22;42923;53.220;6.528;2023-07-24T05:39:16;17.40;99.90
52965;DHT22;42923;53.220;6.528;2023-07-24T05:41:42;17.40;99.90
52965;DHT22;42923;53.220;6.528;2023-07-24T05:44:08;17.50;99.90
52965;DHT22;42923;53.220;6.528;2023-07-24T05:46:34;17.50;99.90
52965;DHT22;42923;53.220;6.528;2023-07-24T05:48:59;17.60;99.90
52965;DHT22;42923;53.220;6.528;2023-07-24T05:51:27;17.50;99.90
52965;DHT22;42923;53.220;6.528;2023-07-24T05:53:53;17.50;99.90
52965;DHT22;42923;53.220;6.528;2023-07-24T05:56:19;17.60;99.90
52965;DHT22;42923;53.220;6.528;2023-07-24T05:58:44;17.60;99.90
52965;DHT22;42923;53.220;6.528;2023-07-24T06:01:10;17.60;99.90
52965;DHT22;42923;53.220;6.528;2023-07-24T06:03:36;17.60;99.90
52965;DHT22;42923;53.220;6.528;2023-07-24T06:06:04;17.60;99.90
52965;DHT22;42923;53.220;6.528;2023-07-24T06:08:30;17.50;99.90
52965;DHT22;42923;53.220;6.528;2023-07-24T06:10:56;17.50;99.90
52965;DHT22;42923;53.220;6.528;2023-07-24T06:13:21;17.40;99.90
52965;DHT22;42923;53.220;6.528;2023-07-24T06:15:48;17.50;99.90
52965;DHT22;42923;53.220;6.528;2023-07-24T06:18:14;17.60;99.90
52965;DHT22;42923;53.220;6.528;2023-07-24T06:20:39;17.70;99.90
52965;DHT22;42923;53.220;6.528;2023-07-24T06:23:05;17.80;99.90
52965;DHT22;42923;53.220;6.528;2023-07-24T06:25:32;17.80;99.90
52965;DHT22;42923;53.220;6.528;2023-07-24T06:27:57;17.90;99.90
52965;DHT22;42923;53.220;6.528;2023-07-24T06:30:23;18.00;99.90
52965;DHT22;42923;53.220;6.528;2023-07-24T06:32:49;18.00;99.90
52965;DHT22;42923;53.220;6.528;2023-07-24T06:35:15;18.00;99.90
52965;DHT22;42923;53.220;6.528;2023-07-24T06:37:41;18.10;99.90
52965;DHT22;42923;53.220;6.528;2023-07-24T06:40:07;18.20;99.90
52965;DHT22;42923;53.220;6.528;2023-07-24T06:42:33;18.20;99.90
52965;DHT22;42923;53.220;6.528;2023-07-24T06:44:59;18.20;99.90
52965;DHT22;42923;53.220;6.528;2023-07-24T06:47:25;18.30;99.90
52965;DHT22;42923;53.220;6.528;2023-07-24T06:49:51;18.30;99.90
52965;DHT22;42923;53.220;6.528;2023-07-24T06:52:17;18.30;99.90
52965;DHT22;42923;53.220;6.528;2023-07-24T06:54:43;18.40;99.90
52965;DHT22;42923;53.220;6.528;2023-07-24T06:57:09;18.50;99.90
52965;DHT22;42923;53.220;6.528;2023-07-24T06:59:35;18.50;99.90
52965;DHT22;42923;53.220;6.528;2023-07-24T07:02:00;18.50;99.90
52965;DHT22;42923;53.220;6.528;2023-07-24T07:04:26;18.60;99.90
52965;DHT22;42923;53.220;6.528;2023-07-24T07:06:52;18.60;99.90
52965;DHT22;42923;53.220;6.528;2023-07-24T07:09:17;18.60;99.90
52965;DHT22;42923;53.220;6.528;2023-07-24T07:11:43;18.70;99.90
52965;DHT22;42923;53.220;6.528;2023-07-24T07:14:10;18.80;99.90
52965;DHT22;42923;53.220;6.528;2023-07-24T07:16:36;18.80;99.90
52965;DHT22;42923;53.220;6.528;2023-07-24T07:19:02;18.80;99.90
52965;DHT22;42923;53.220;6.528;2023-07-24T07:21:28;18.90;99.90
52965;DHT22;42923;53.220;6.528;2023-07-24T07:23:53;18.90;99.90
52965;DHT22;42923;53.220;6.528;2023-07-24T07:26:20;19.00;99.90
52965;DHT22;42923;53.220;6.528;2023-07-24T07:28:46;19.10;99.90
52965;DHT22;42923;53.220;6.528;2023-07-24T07:31:12;19.10;99.90
52965;DHT22;42923;53.220;6.528;2023-07-24T07:33:38;19.20;99.90
52965;DHT22;42923;53.220;6.528;2023-07-24T07:36:04;19.20;99.90
52965;DHT22;42923;53.220;6.528;2023-07-24T07:38:31;19.30;99.90
52965;DHT22;42923;53.220;6.528;2023-07-24T07:40:57;19.20;99.90
52965;DHT22;42923;53.220;6.528;2023-07-24T07:43:23;19.30;99.90
52965;DHT22;42923;53.220;6.528;2023-07-24T07:45:49;19.30;99.90
52965;DHT22;42923;53.220;6.528;2023-07-24T07:48:15;19.30;99.90
52965;DHT22;42923;53.220;6.528;2023-07-24T07:50:40;19.50;99.90
52965;DHT22;42923;53.220;6.528;2023-07-24T07:53:06;19.50;99.90
52965;DHT22;42923;53.220;6.528;2023-07-24T07:55:32;19.60;99.90
52965;DHT22;42923;53.220;6.528;2023-07-24T07:57:58;19.70;99.90
52965;DHT22;42923;53.220;6.528;2023-07-24T08:00:23;19.90;99.90
52965;DHT22;42923;53.220;6.528;2023-07-24T08:02:49;20.00;99.90
52965;DHT22;42923;53.220;6.528;2023-07-24T08:05:15;20.10;99.90
52965;DHT22;42923;53.220;6.528;2023-07-24T08:07:41;20.20;99.90
52965;DHT22;42923;53.220;6.528;2023-07-24T08:10:07;20.30;99.90
52965;DHT22;42923;53.220;6.528;2023-07-24T08:12:33;20.30;99.90
52965;DHT22;42923;53.220;6.528;2023-07-24T08:14:59;20.40;99.90
52965;DHT22;42923;53.220;6.528;2023-07-24T08:17:25;20.50;99.90
52965;DHT22;42923;53.220;6.528;2023-07-24T08:19:50;20.70;99.90
52965;DHT22;42923;53.220;6.528;2023-07-24T08:22:16;20.70;99.90
52965;DHT22;42923;53.220;6.528;2023-07-24T08:24:42;20.70;99.90
52965;DHT22;42923;53.220;6.528;2023-07-24T08:27:10;20.70;99.90
52965;DHT22;42923;53.220;6.528;2023-07-24T08:29:35;20.70;99.90
52965;DHT22;42923;53.220;6.528;2023-07-24T08:32:04;20.70;99.90
52965;DHT22;42923;53.220;6.528;2023-07-24T08:34:30;20.60;99.90
52965;DHT22;42923;53.220;6.528;2023-07-24T08:36:55;20.60;99.90
52965;DHT22;42923;53.220;6.528;2023-07-24T08:39:21;20.50;99.90
52965;DHT22;42923;53.220;6.528;2023-07-24T08:41:47;20.50;99.90
52965;DHT22;42923;53.220;6.528;2023-07-24T08:44:13;20.50;99.90
52965;DHT22;42923;53.220;6.528;2023-07-24T08:46:39;20.40;99.90
52965;DHT22;42923;53.220;6.528;2023-07-24T08:49:11;20.40;99.90
52965;DHT22;42923;53.220;6.528;2023-07-24T08:51:37;20.40;99.90
52965;DHT22;42923;53.220;6.528;2023-07-24T08:54:04;20.50;99.90
52965;DHT22;42923;53.220;6.528;2023-07-24T08:56:30;20.50;99.90
52965;DHT22;42923;53.220;6.528;2023-07-24T08:58:56;20.50;99.90
52965;DHT22;42923;53.220;6.528;2023-07-24T09:01:21;20.50;99.90
52965;DHT22;42923;53.220;6.528;2023-07-24T09:03:47;20.60;99.90
52965;DHT22;42923;53.220;6.528;2023-07-24T09:06:13;20.50;99.90
52965;DHT22;42923;53.220;6.528;2023-07-24T09:08:41;20.50;99.90
52965;DHT22;42923;53.220;6.528;2023-07-24T09:11:08;20.50;99.90
52965;DHT22;42923;53.220;6.528;2023-07-24T09:13:40;20.50;99.90
52965;DHT22;42923;53.220;6.528;2023-07-24T09:16:06;20.60;99.90
52965;DHT22;42923;53.220;6.528;2023-07-24T09:18:42;20.60;99.90
52965;DHT22;42923;53.220;6.528;2023-07-24T09:21:09;20.70;99.90
52965;DHT22;42923;53.220;6.528;2023-07-24T09:23:37;20.80;99.90
52965;DHT22;42923;53.220;6.528;2023-07-24T09:26:07;20.90;99.90
52965;DHT22;42923;53.220;6.528;2023-07-24T09:28:34;21.00;99.90
52965;DHT22;42923;53.220;6.528;2023-07-24T09:31:00;21.10;99.90
52965;DHT22;42923;53.220;6.528;2023-07-24T09:36:02;21.50;99.90
52965;DHT22;42923;53.220;6.528;2023-07-24T09:38:28;21.80;99.90
52965;DHT22;42923;53.220;6.528;2023-07-24T09:40:55;21.90;99.90
52965;DHT22;42923;53.220;6.528;2023-07-24T09:43:25;22.00;99.90
52965;DHT22;42923;53.220;6.528;2023-07-24T09:45:52;22.10;99.90
52965;DHT22;42923;53.220;6.528;2023-07-24T09:48:20;22.40;99.90
52965;DHT22;42923;53.220;6.528;2023-07-24T09:50:47;22.60;99.90
52965;DHT22;42923;53.220;6.528;2023-07-24T09:53:33;22.90;99.90
52965;DHT22;42923;53.220;6.528;2023-07-24T09:56:03;23.00;99.90
52965;DHT22;42923;53.220;6.528;2023-07-24T09:58:38;23.00;99.90
52965;DHT22;42923;53.220;6.528;2023-07-24T10:01:05;23.00;99.90
52965;DHT22;42923;53.220;6.528;2023-07-24T10:03:40;23.20;99.90
52965;DHT22;42923;53.220;6.528;2023-07-24T10:06:08;23.20;99.90
52965;DHT22;42923;53.220;6.528;2023-07-24T10:08:38;23.20;99.90
52965;DHT22;42923;53.220;6.528;2023-07-24T10:11:04;23.30;99.90
52965;DHT22;42923;53.220;6.528;2023-07-24T10:13:31;23.30;99.90
52965;DHT22;42923;53.220;6.528;2023-07-24T10:16:02;23.20;99.90
52965;DHT22;42923;53.220;6.528;2023-07-24T10:18:30;23.10;99.90
52965;DHT22;42923;53.220;6.528;2023-07-24T10:21:01;23.00;99.90
52965;DHT22;42923;53.220;6.528;2023-07-24T10:23:27;22.80;99.90
52965;DHT22;42923;53.220;6.528;2023-07-24T10:25:53;22.80;99.90
52965;DHT22;42923;53.220;6.528;2023-07-24T10:28:29;22.90;99.90
52965;DHT22;42923;53.220;6.528;2023-07-24T10:30:55;23.20;99.90
52965;DHT22;42923;53.220;6.528;2023-07-24T10:33:21;23.30;99.90
52965;DHT22;42923;53.220;6.528;2023-07-24T10:35:53;23.40;99.90
52965;DHT22;42923;53.220;6.528;2023-07-24T10:38:19;23.50;99.90
52965;DHT22;42923;53.220;6.528;2023-07-24T10:40:47;23.50;99.90
52965;DHT22;42923;53.220;6.528;2023-07-24T10:43:19;23.50;99.90
52965;DHT22;42923;53.220;6.528;2023-07-24T10:45:51;23.50;99.90
52965;DHT22;42923;53.220;6.528;2023-07-24T10:48:18;23.50;99.90
52965;DHT22;42923;53.220;6.528;2023-07-24T10:50:46;23.70;99.90
52965;DHT22;42923;53.220;6.528;2023-07-24T10:53:15;23.70;99.90
52965;DHT22;42923;53.220;6.528;2023-07-24T10:55:42;23.40;99.90
52965;DHT22;42923;53.220;6.528;2023-07-24T10:58:08;22.80;99.90
52965;DHT22;42923;53.220;6.528;2023-07-24T11:00:34;22.30;99.90
52965;DHT22;42923;53.220;6.528;2023-07-24T11:03:01;21.90;99.90
52965;DHT22;42923;53.220;6.528;2023-07-24T11:05:26;21.60;99.90
52965;DHT22;42923;53.220;6.528;2023-07-24T11:07:52;21.40;99.90
52965;DHT22;42923;53.220;6.528;2023-07-24T11:10:20;21.30;99.90
52965;DHT22;42923;53.220;6.528;2023-07-24T11:12:45;21.30;99.90
52965;DHT22;42923;53.220;6.528;2023-07-24T11:15:12;21.30;99.90
52965;DHT22;42923;53.220;6.528;2023-07-24T11:17:40;21.30;99.90
52965;DHT22;42923;53.220;6.528;2023-07-24T11:20:08;21.30;99.90
52965;DHT22;42923;53.220;6.528;2023-07-24T11:22:34;21.10;99.90
52965;DHT22;42923;53.220;6.528;2023-07-24T11:24:59;20.90;99.90
52965;DHT22;42923;53.220;6.528;2023-07-24T11:27:27;20.70;99.90
52965;DHT22;42923;53.220;6.528;2023-07-24T11:29:52;20.60;99.90
52965;DHT22;42923;53.220;6.528;2023-07-24T11:32:22;20.70;99.90
52965;DHT22;42923;53.220;6.528;2023-07-24T11:34:51;20.90;99.90
52965;DHT22;42923;53.220;6.528;2023-07-24T11:37:18;21.10;99.90
52965;DHT22;42923;53.220;6.528;2023-07-24T11:39:58;21.30;99.90
52965;DHT22;42923;53.220;6.528;2023-07-24T11:42:26;21.50;99.90
52965;DHT22;42923;53.220;6.528;2023-07-24T11:44:53;21.60;99.90
52965;DHT22;42923;53.220;6.528;2023-07-24T11:47:19;21.90;99.90
52965;DHT22;42923;53.220;6.528;2023-07-24T11:49:55;22.20;99.90
52965;DHT22;42923;53.220;6.528;2023-07-24T11:52:21;22.70;99.90
52965;DHT22;42923;53.220;6.528;2023-07-24T11:54:56;23.30;99.90
52965;DHT22;42923;53.220;6.528;2023-07-24T11:57:27;23.60;99.90
52965;DHT22;42923;53.220;6.528;2023-07-24T11:59:53;23.80;99.90
52965;DHT22;42923;53.220;6.528;2023-07-24T12:02:19;24.10;99.90
52965;DHT22;42923;53.220;6.528;2023-07-24T12:04:45;24.40;99.90
52965;DHT22;42923;53.220;6.528;2023-07-24T12:07:10;24.70;99.90
52965;DHT22;42923;53.220;6.528;2023-07-24T12:09:36;24.70;99.90
52965;DHT22;42923;53.220;6.528;2023-07-24T12:12:03;24.50;99.90
52965;DHT22;42923;53.220;6.528;2023-07-24T12:14:30;24.10;99.90
52965;DHT22;42923;53.220;6.528;2023-07-24T12:17:04;23.60;99.90
52965;DHT22;42923;53.220;6.528;2023-07-24T12:19:35;23.20;99.90
52965;DHT22;42923;53.220;6.528;2023-07-24T12:22:01;22.70;99.90
52965;DHT22;42923;53.220;6.528;2023-07-24T12:24:29;22.10;99.90
52965;DHT22;42923;53.220;6.528;2023-07-24T12:26:55;21.40;99.90
52965;DHT22;42923;53.220;6.528;2023-07-24T12:29:21;20.50;99.90
52965;DHT22;42923;53.220;6.528;2023-07-24T12:31:46;19.90;99.90
52965;DHT22;42923;53.220;6.528;2023-07-24T12:34:12;19.30;99.90
52965;DHT22;42923;53.220;6.528;2023-07-24T12:36:38;18.90;99.90
52965;DHT22;42923;53.220;6.528;2023-07-24T12:39:03;18.60;99.90
52965;DHT22;42923;53.220;6.528;2023-07-24T12:41:29;18.40;99.90
52965;DHT22;42923;53.220;6.528;2023-07-24T12:43:55;18.20;99.90
52965;DHT22;42923;53.220;6.528;2023-07-24T12:46:20;18.10;99.90
52965;DHT22;42923;53.220;6.528;2023-07-24T12:48:47;18.10;99.90
52965;DHT22;42923;53.220;6.528;2023-07-24T12:51:12;18.00;99.90
52965;DHT22;42923;53.220;6.528;2023-07-24T12:53:38;18.00;99.90
52965;DHT22;42923;53.220;6.528;2023-07-24T12:56:04;17.90;99.90
52965;DHT22;42923;53.220;6.528;2023-07-24T12:58:29;17.90;99.90
52965;DHT22;42923;53.220;6.528;2023-07-24T13:00:55;17.80;99.90
52965;DHT22;42923;53.220;6.528;2023-07-24T13:03:21;17.80;99.90
52965;DHT22;42923;53.220;6.528;2023-07-24T13:05:47;17.90;99.90
52965;DHT22;42923;53.220;6.528;2023-07-24T13:08:13;18.00;99.90
52965;DHT22;42923;53.220;6.528;2023-07-24T13:10:38;18.20;99.90
52965;DHT22;42923;53.220;6.528;2023-07-24T13:13:04;18.40;99.90
52965;DHT22;42923;53.220;6.528;2023-07-24T13:15:30;18.60;99.90
52965;DHT22;42923;53.220;6.528;2023-07-24T13:17:57;18.80;99.90
52965;DHT22;42923;53.220;6.528;2023-07-24T13:20:24;18.90;99.90
52965;DHT22;42923;53.220;6.528;2023-07-24T13:22:50;19.00;99.90
52965;DHT22;42923;53.220;6.528;2023-07-24T13:25:16;19.20;99.90
52965;DHT22;42923;53.220;6.528;2023-07-24T13:27:41;19.60;99.90
52965;DHT22;42923;53.220;6.528;2023-07-24T13:30:07;20.10;99.90
52965;DHT22;42923;53.220;6.528;2023-07-24T13:32:33;20.30;99.90
52965;DHT22;42923;53.220;6.528;2023-07-24T13:34:59;20.30;99.90
52965;DHT22;42923;53.220;6.528;2023-07-24T13:37:26;20.30;99.90
52965;DHT22;42923;53.220;6.528;2023-07-24T13:39:51;20.20;99.90
52965;DHT22;42923;53.220;6.528;2023-07-24T13:42:17;20.10;99.90
52965;DHT22;42923;53.220;6.528;2023-07-24T13:44:43;19.90;99.90
52965;DHT22;42923;53.220;6.528;2023-07-24T13:47:08;19.60;99.90
52965;DHT22;42923;53.220;6.528;2023-07-24T13:49:34;19.40;99.90
52965;DHT22;42923;53.220;6.528;2023-07-24T13:52:00;19.30;99.90
52965;DHT22;42923;53.220;6.528;2023-07-24T13:54:25;19.30;99.90
52965;DHT22;42923;53.220;6.528;2023-07-24T13:56:51;19.20;99.90
52965;DHT22;42923;53.220;6.528;2023-07-24T13:59:17;19.10;99.90
52965;DHT22;42923;53.220;6.528;2023-07-24T14:01:43;19.00;99.90
52965;DHT22;42923;53.220;6.528;2023-07-24T14:04:08;18.80;99.90
52965;DHT22;42923;53.220;6.528;2023-07-24T14:06:34;18.90;99.90
52965;DHT22;42923;53.220;6.528;2023-07-24T14:09:00;18.80;99.90
52965;DHT22;42923;53.220;6.528;2023-07-24T14:11:25;18.80;99.90
52965;DHT22;42923;53.220;6.528;2023-07-24T14:13:52;18.70;99.90
52965;DHT22;42923;53.220;6.528;2023-07-24T14:16:18;18.60;99.90
52965;DHT22;42923;53.220;6.528;2023-07-24T14:18:44;18.70;99.90
52965;DHT22;42923;53.220;6.528;2023-07-24T14:21:09;18.70;99.90
52965;DHT22;42923;53.220;6.528;2023-07-24T14:23:35;18.80;99.90
52965;DHT22;42923;53.220;6.528;2023-07-24T14:26:01;19.00;99.90
52965;DHT22;42923;53.220;6.528;2023-07-24T14:28:26;19.40;99.90
52965;DHT22;42923;53.220;6.528;2023-07-24T14:30:52;19.50;99.90
52965;DHT22;42923;53.220;6.528;2023-07-24T14:33:18;19.60;99.90
52965;DHT22;42923;53.220;6.528;2023-07-24T14:35:43;19.50;99.90
52965;DHT22;42923;53.220;6.528;2023-07-24T14:38:09;19.40;99.90
52965;DHT22;42923;53.220;6.528;2023-07-24T14:40:35;19.20;99.90
52965;DHT22;42923;53.220;6.528;2023-07-24T14:43:01;19.10;99.90
52965;DHT22;42923;53.220;6.528;2023-07-24T14:45:27;18.90;99.90
52965;DHT22;42923;53.220;6.528;2023-07-24T14:47:53;18.80;99.90
52965;DHT22;42923;53.220;6.528;2023-07-24T14:50:18;18.80;99.90
52965;DHT22;42923;53.220;6.528;2023-07-24T14:52:44;18.80;99.90
52965;DHT22;42923;53.220;6.528;2023-07-24T14:55:10;18.90;99.90
52965;DHT22;42923;53.220;6.528;2023-07-24T14:57:35;19.10;99.90
52965;DHT22;42923;53.220;6.528;2023-07-24T15:00:01;19.10;99.90
52965;DHT22;42923;53.220;6.528;2023-07-24T15:02:28;19.10;99.90
52965;DHT22;42923;53.220;6.528;2023-07-24T15:04:54;19.00;99.90
52965;DHT22;42923;53.220;6.528;2023-07-24T15:07:19;18.90;99.90
52965;DHT22;42923;53.220;6.528;2023-07-24T15:09:45;18.90;99.90
52965;DHT22;42923;53.220;6.528;2023-07-24T15:12:11;18.80;99.90
52965;DHT22;42923;53.220;6.528;2023-07-24T15:14:37;18.70;99.90
52965;DHT22;42923;53.220;6.528;2023-07-24T15:17:02;18.60;99.90
52965;DHT22;42923;53.220;6.528;2023-07-24T15:19:28;18.60;99.90
52965;DHT22;42923;53.220;6.528;2023-07-24T15:21:54;18.60;99.90
52965;DHT22;42923;53.220;6.528;2023-07-24T15:24:19;18.80;99.90
52965;DHT22;42923;53.220;6.528;2023-07-24T15:26:45;18.90;99.90
52965;DHT22;42923;53.220;6.528;2023-07-24T15:29:12;19.00;99.90
52965;DHT22;42923;53.220;6.528;2023-07-24T15:31:39;19.00;99.90
52965;DHT22;42923;53.220;6.528;2023-07-24T15:34:06;19.00;99.90